Time;durP1;ratioP1;P1;durP2;ratioP2;P2;SDS_P1;SDS_P2;PMS_P1;PMS_P2;Temp;Humidity;BMP_temperature;BMP_pressure;BME280_temperature;BME280_humidity;BME280_pressure;Samples;Min_cycle;Max_cycle;Signal;HPM_P1;HPM_P2
2023/05/05 00:01:18;;;;;;;14.52;9.55;;;;;;;;;;5048039;28;20032;-61
2023/05/05 00:03:43;;;;;;;17.90;9.15;;;;;;;;;;5065811;28;20516;-61
2023/05/05 00:06:08;;;;;;;13.35;8.80;;;;;;;;;;5066182;28;20024;-60
2023/05/05 00:08:34;;;;;;;14.35;7.85;;;;;;;;;;5065817;28;20023;-60
2023/05/05 00:10:59;;;;;;;12.43;7.20;;;;;;;;;;5065580;28;20028;-60
2023/05/05 00:13:24;;;;;;;14.30;7.53;;;;;;;;;;5065623;28;20527;-60
2023/05/05 00:15:50;;;;;;;10.48;6.55;;;;;;;;;;5065720;28;20028;-59
2023/05/05 00:18:16;;;;;;;10.32;6.45;;;;;;;;;;5029956;28;20052;-59
2023/05/05 00:20:42;;;;;;;12.20;6.57;;;;;;;;;;5065903;28;20488;-60
2023/05/05 00:23:07;;;;;;;8.13;5.78;;;;;;;;;;5065779;28;20025;-60
2023/05/05 00:25:32;;;;;;;9.23;6.00;;;;;;;;;;5065681;28;20040;-60
2023/05/05 00:27:58;;;;;;;12.95;6.65;;;;;;;;;;5065728;28;20077;-61
2023/05/05 00:30:23;;;;;;;9.98;6.20;;;;;;;;;;5065208;28;20027;-60
2023/05/05 00:32:49;;;;;;;11.35;6.03;;;;;;;;;;5065143;28;20020;-60
2023/05/05 00:35:14;;;;;;;11.23;6.20;;;;;;;;;;5065495;28;20491;-61
2023/05/05 00:37:40;;;;;;;9.30;6.43;;;;;;;;;;5045942;28;20064;-60
2023/05/05 00:40:06;;;;;;;9.10;5.70;;;;;;;;;;5065566;28;20017;-60
2023/05/05 00:42:41;;;;;;;12.90;5.63;;;;;;;;;;5065329;28;20029;-61
2023/05/05 00:45:07;;;;;;;8.55;5.38;;;;;;;;;;5065225;28;20057;-60
2023/05/05 00:47:32;;;;;;;9.73;4.90;;;;;;;;;;5065086;28;20461;-61
2023/05/05 00:49:58;;;;;;;10.40;5.57;;;;;;;;;;5065483;28;20099;-61
2023/05/05 00:52:23;;;;;;;8.23;5.63;;;;;;;;;;5065189;28;20569;-61
2023/05/05 00:54:48;;;;;;;9.70;5.55;;;;;;;;;;5047078;28;20056;-60
2023/05/05 00:57:14;;;;;;;9.18;5.43;;;;;;;;;;5054228;28;20027;-60
2023/05/05 00:59:39;;;;;;;13.15;6.47;;;;;;;;;;5045281;28;20806;-60
2023/05/05 01:02:05;;;;;;;10.23;5.88;;;;;;;;;;5047036;28;20476;-59
2023/05/05 01:04:30;;;;;;;9.93;5.43;;;;;;;;;;5048815;28;20021;-60
2023/05/05 01:07:06;;;;;;;10.63;6.22;;;;;;;;;;5049156;28;20071;-60
2023/05/05 01:09:31;;;;;;;8.85;5.32;;;;;;;;;;5048956;28;20449;-59
2023/05/05 01:11:57;;;;;;;8.97;5.83;;;;;;;;;;5030205;28;20056;-60
2023/05/05 01:14:27;;;;;;;12.68;5.60;;;;;;;;;;5048775;28;20951;-61
2023/05/05 01:16:52;;;;;;;13.73;5.63;;;;;;;;;;5048226;28;20033;-60
2023/05/05 01:19:30;;;;;;;8.43;5.30;;;;;;;;;;5048872;28;20424;-61
2023/05/05 01:21:57;;;;;;;10.93;5.45;;;;;;;;;;5048360;28;20021;-60
2023/05/05 01:24:44;;;;;;;9.30;5.07;;;;;;;;;;5049021;28;20021;-60
2023/05/05 01:27:12;;;;;;;10.05;5.22;;;;;;;;;;5048447;28;20086;-61
2023/05/05 01:29:56;;;;;;;6.38;4.82;;;;;;;;;;5048461;28;20087;-60
2023/05/05 01:32:25;;;;;;;8.95;5.10;;;;;;;;;;5048251;28;20094;-59
2023/05/05 01:35:20;;;;;;;11.67;6.50;;;;;;;;;;5047933;28;20047;-61
2023/05/05 01:37:50;;;;;;;9.75;5.43;;;;;;;;;;4947848;28;20046;-60
2023/05/05 01:40:18;;;;;;;7.20;5.03;;;;;;;;;;4948089;28;20763;-59
2023/05/05 01:42:44;;;;;;;8.02;5.30;;;;;;;;;;4931610;28;20163;-60
2023/05/05 01:45:11;;;;;;;8.60;5.28;;;;;;;;;;4947456;28;20574;-60
2023/05/05 01:47:38;;;;;;;11.75;5.47;;;;;;;;;;4947782;28;20396;-60
2023/05/05 01:50:05;;;;;;;8.57;5.85;;;;;;;;;;4947913;28;20544;-60
2023/05/05 01:52:30;;;;;;;12.07;5.63;;;;;;;;;;4947564;28;20034;-60
2023/05/05 01:54:57;;;;;;;7.65;5.53;;;;;;;;;;4947510;28;20027;-61
2023/05/05 01:57:24;;;;;;;8.43;5.20;;;;;;;;;;4947533;28;20392;-60
2023/05/05 01:59:50;;;;;;;10.85;5.55;;;;;;;;;;4947593;28;20027;-61
2023/05/05 02:02:16;;;;;;;11.20;6.18;;;;;;;;;;4947547;28;20046;-59
2023/05/05 02:04:42;;;;;;;9.45;5.57;;;;;;;;;;4947381;28;20019;-60
2023/05/05 02:07:09;;;;;;;9.77;5.13;;;;;;;;;;4947800;28;20102;-60
2023/05/05 02:09:35;;;;;;;6.30;4.70;;;;;;;;;;4947338;28;20019;-60
2023/05/05 02:12:01;;;;;;;6.53;4.60;;;;;;;;;;4947749;28;20087;-60
2023/05/05 02:14:27;;;;;;;10.50;5.22;;;;;;;;;;5008447;28;20047;-60
2023/05/05 02:16:54;;;;;;;7.35;5.20;;;;;;;;;;5047430;28;20272;-59
2023/05/05 02:19:21;;;;;;;10.02;5.45;;;;;;;;;;5047701;28;20108;-60
2023/05/05 02:21:46;;;;;;;8.82;5.22;;;;;;;;;;5029678;28;20024;-59
2023/05/05 02:24:12;;;;;;;8.55;5.28;;;;;;;;;;5047578;28;20099;-59
2023/05/05 02:26:42;;;;;;;9.18;5.40;;;;;;;;;;4995768;28;20060;-60
2023/05/05 02:29:16;;;;;;;7.35;4.97;;;;;;;;;;5047246;28;20071;-60
2023/05/05 02:31:44;;;;;;;9.95;5.57;;;;;;;;;;5047350;28;20413;-59
2023/05/05 02:34:10;;;;;;;9.65;6.03;;;;;;;;;;5047096;28;20484;-59
2023/05/05 02:36:39;;;;;;;9.77;5.55;;;;;;;;;;5046874;28;20116;-60
2023/05/05 02:39:11;;;;;;;7.85;5.35;;;;;;;;;;5029572;28;20413;-59
2023/05/05 02:41:38;;;;;;;9.18;5.43;;;;;;;;;;5047103;28;20078;-59
2023/05/05 02:44:04;;;;;;;10.80;6.15;;;;;;;;;;5047198;28;20083;-60
2023/05/05 02:46:29;;;;;;;11.60;5.85;;;;;;;;;;5046939;28;20525;-59
2023/05/05 02:48:55;;;;;;;11.13;6.60;;;;;;;;;;5046752;28;20108;-59
2023/05/05 02:51:20;;;;;;;8.90;5.35;;;;;;;;;;5046646;28;20025;-60
2023/05/05 02:53:45;;;;;;;10.00;5.72;;;;;;;;;;5047375;28;20025;-60
2023/05/05 02:56:25;;;;;;;11.10;5.47;;;;;;;;;;5047339;28;20029;-59
2023/05/05 02:58:52;;;;;;;7.38;5.22;;;;;;;;;;5026705;28;20483;-61
2023/05/05 03:01:17;;;;;;;9.20;5.13;;;;;;;;;;5026897;28;20117;-61
2023/05/05 03:03:50;;;;;;;9.05;5.13;;;;;;;;;;5026839;28;20100;-60
2023/05/05 03:06:17;;;;;;;9.60;5.47;;;;;;;;;;5027017;28;20386;-59
2023/05/05 03:09:18;;;;;;;7.65;4.95;;;;;;;;;;5026415;28;20021;-60
2023/05/05 03:11:43;;;;;;;11.43;5.30;;;;;;;;;;4927215;29;20058;-59
2023/05/05 03:14:10;;;;;;;8.90;6.30;;;;;;;;;;4926807;29;20450;-58
2023/05/05 03:16:36;;;;;;;10.52;5.32;;;;;;;;;;4926631;29;20051;-60
2023/05/05 03:19:02;;;;;;;9.32;5.63;;;;;;;;;;4927026;29;20694;-60
2023/05/05 03:21:28;;;;;;;10.10;5.80;;;;;;;;;;4927010;29;20220;-60
2023/05/05 03:23:53;;;;;;;10.43;5.55;;;;;;;;;;4926962;29;20036;-60
2023/05/05 03:26:18;;;;;;;11.32;5.80;;;;;;;;;;4926635;29;20036;-60
2023/05/05 03:28:44;;;;;;;9.30;6.20;;;;;;;;;;4926540;29;20114;-60
2023/05/05 03:31:09;;;;;;;10.70;5.15;;;;;;;;;;4926599;29;20115;-61
2023/05/05 03:33:35;;;;;;;9.55;5.47;;;;;;;;;;4926996;29;20561;-61
2023/05/05 03:36:00;;;;;;;7.80;5.00;;;;;;;;;;4926312;29;20029;-61
2023/05/05 03:38:25;;;;;;;11.38;6.38;;;;;;;;;;4926489;29;20148;-60
2023/05/05 03:40:50;;;;;;;8.02;5.55;;;;;;;;;;4926331;29;20087;-61
2023/05/05 03:43:16;;;;;;;8.25;5.28;;;;;;;;;;4926392;29;20458;-61
2023/05/05 03:45:41;;;;;;;12.20;5.32;;;;;;;;;;4975602;28;20045;-62
2023/05/05 03:48:08;;;;;;;7.72;5.10;;;;;;;;;;5026254;28;20079;-61
2023/05/05 03:50:33;;;;;;;8.55;5.57;;;;;;;;;;5026304;28;20075;-61
2023/05/05 03:52:59;;;;;;;8.15;5.28;;;;;;;;;;5026256;28;20022;-61
2023/05/05 03:55:24;;;;;;;8.55;5.60;;;;;;;;;;5026164;28;20518;-61
2023/05/05 03:57:49;;;;;;;7.80;5.30;;;;;;;;;;5026224;28;20038;-61
2023/05/05 04:00:15;;;;;;;6.93;5.10;;;;;;;;;;5007101;28;20025;-61
2023/05/05 04:02:40;;;;;;;14.98;6.05;;;;;;;;;;5025713;28;20123;-61
2023/05/05 04:05:06;;;;;;;10.15;5.40;;;;;;;;;;5025654;28;20025;-60
2023/05/05 04:07:31;;;;;;;8.88;5.97;;;;;;;;;;5026001;28;20521;-60
2023/05/05 04:09:56;;;;;;;9.38;5.03;;;;;;;;;;5026160;28;20040;-61
2023/05/05 04:12:22;;;;;;;8.10;5.13;;;;;;;;;;5026313;28;20025;-59
2023/05/05 04:14:47;;;;;;;7.70;5.32;;;;;;;;;;5025696;28;20036;-60
2023/05/05 04:17:12;;;;;;;7.97;5.78;;;;;;;;;;5025806;28;20487;-61
2023/05/05 04:19:37;;;;;;;7.78;5.55;;;;;;;;;;5025752;28;20033;-59
2023/05/05 04:22:03;;;;;;;8.27;6.40;;;;;;;;;;5025845;28;20514;-60
2023/05/05 04:24:28;;;;;;;7.38;6.10;;;;;;;;;;5025817;28;20326;-61
2023/05/05 04:26:53;;;;;;;10.68;6.88;;;;;;;;;;5025462;28;20057;-61
2023/05/05 04:29:19;;;;;;;8.95;5.82;;;;;;;;;;5025683;28;20025;-60
2023/05/05 04:31:44;;;;;;;10.85;5.78;;;;;;;;;;5025518;28;20404;-62
2023/05/05 04:34:09;;;;;;;13.85;6.63;;;;;;;;;;5025183;28;20036;-60
2023/05/05 04:36:35;;;;;;;10.63;6.65;;;;;;;;;;5007221;28;20045;-60
2023/05/05 04:39:01;;;;;;;10.43;6.10;;;;;;;;;;5029558;28;20518;-60
2023/05/05 04:41:26;;;;;;;13.50;6.90;;;;;;;;;;5029379;28;20017;-60
2023/05/05 04:43:52;;;;;;;10.57;6.75;;;;;;;;;;5029268;28;20033;-61
2023/05/05 04:46:17;;;;;;;14.35;7.25;;;;;;;;;;5029482;28;20486;-60
2023/05/05 04:48:42;;;;;;;9.80;6.28;;;;;;;;;;5029314;28;20028;-60
2023/05/05 04:51:08;;;;;;;12.82;6.22;;;;;;;;;;5029069;28;20063;-61
2023/05/05 04:53:33;;;;;;;8.60;5.65;;;;;;;;;;5029059;28;20034;-61
2023/05/05 04:55:59;;;;;;;9.77;5.65;;;;;;;;;;5029075;28;20025;-60
2023/05/05 04:58:24;;;;;;;11.48;5.47;;;;;;;;;;5029210;28;20032;-60
2023/05/05 05:00:50;;;;;;;12.90;5.25;;;;;;;;;;5029257;28;20026;-60
2023/05/05 05:03:15;;;;;;;13.32;5.25;;;;;;;;;;5028670;28;20057;-61
2023/05/05 05:05:40;;;;;;;10.68;5.78;;;;;;;;;;5028901;28;20036;-60
2023/05/05 05:08:05;;;;;;;11.98;5.68;;;;;;;;;;5029283;28;20041;-61
2023/05/05 05:10:31;;;;;;;11.30;4.60;;;;;;;;;;4993932;28;20033;-61
2023/05/05 05:12:56;;;;;;;10.02;5.00;;;;;;;;;;5029339;28;20024;-61
2023/05/05 05:15:21;;;;;;;11.50;4.85;;;;;;;;;;5028832;28;20112;-59
2023/05/05 05:17:47;;;;;;;11.88;4.68;;;;;;;;;;5028798;28;20037;-60
2023/05/05 05:20:12;;;;;;;8.63;4.93;;;;;;;;;;4993910;28;20038;-61
2023/05/05 05:22:37;;;;;;;9.32;4.70;;;;;;;;;;5028667;28;20057;-61
2023/05/05 05:25:03;;;;;;;8.52;4.78;;;;;;;;;;5028724;28;20535;-60
2023/05/05 05:27:28;;;;;;;9.23;4.82;;;;;;;;;;5028832;28;20221;-61
2023/05/05 05:29:54;;;;;;;10.50;4.53;;;;;;;;;;5031519;28;20517;-61
2023/05/05 05:32:19;;;;;;;6.93;4.25;;;;;;;;;;5032483;28;20033;-61
2023/05/05 05:34:45;;;;;;;6.78;4.28;;;;;;;;;;5030665;28;20025;-59
2023/05/05 05:37:10;;;;;;;5.32;3.85;;;;;;;;;;5034650;28;20075;-62
2023/05/05 05:39:35;;;;;;;8.15;4.20;;;;;;;;;;5028236;28;20021;-60
2023/05/05 05:42:02;;;;;;;7.65;4.10;;;;;;;;;;5016719;28;20107;-60
2023/05/05 05:44:27;;;;;;;5.70;3.55;;;;;;;;;;5030503;28;20017;-60
2023/05/05 05:46:52;;;;;;;10.98;4.30;;;;;;;;;;5038289;28;20066;-61
2023/05/05 05:49:18;;;;;;;8.40;4.20;;;;;;;;;;5033267;28;20018;-59
2023/05/05 05:51:43;;;;;;;10.05;4.50;;;;;;;;;;5033135;28;20858;-60
2023/05/05 05:54:08;;;;;;;9.97;3.70;;;;;;;;;;5027904;28;20021;-61
2023/05/05 05:56:33;;;;;;;8.43;4.25;;;;;;;;;;5032832;28;20374;-59
2023/05/05 05:59:00;;;;;;;6.10;3.30;;;;;;;;;;5033090;28;20072;-59
2023/05/05 06:01:26;;;;;;;7.78;3.33;;;;;;;;;;5031659;28;21765;-60
2023/05/05 06:03:51;;;;;;;7.60;3.80;;;;;;;;;;5014509;28;20057;-59
2023/05/05 06:06:17;;;;;;;7.38;3.75;;;;;;;;;;5033918;28;20478;-60
2023/05/05 06:08:42;;;;;;;13.63;4.63;;;;;;;;;;5010615;28;20031;-60
2023/05/05 06:11:07;;;;;;;12.68;4.65;;;;;;;;;;5036996;28;20021;-61
2023/05/05 06:13:33;;;;;;;11.60;4.30;;;;;;;;;;5033019;28;20033;-61
2023/05/05 06:15:58;;;;;;;12.35;4.03;;;;;;;;;;5033617;28;20021;-61
2023/05/05 06:18:23;;;;;;;11.40;4.72;;;;;;;;;;5033682;28;20041;-55
2023/05/05 06:20:49;;;;;;;12.98;4.35;;;;;;;;;;5043258;28;20021;-60
2023/05/05 06:23:15;;;;;;;8.75;3.75;;;;;;;;;;5037826;28;20097;-59
2023/05/05 06:25:40;;;;;;;10.10;2.97;;;;;;;;;;5029935;28;20041;-59
2023/05/05 06:28:06;;;;;;;19.23;4.30;;;;;;;;;;5029795;28;20096;-60
2023/05/05 06:30:31;;;;;;;252.02;229.20;;;;;;;;;;5028102;28;20262;-58
2023/05/05 06:32:57;;;;;;;9.50;3.97;;;;;;;;;;5029112;28;20021;-59
2023/05/05 06:35:23;;;;;;;9.45;4.30;;;;;;;;;;5041404;28;20025;-59
2023/05/05 06:37:48;;;;;;;18.15;4.95;;;;;;;;;;5047984;28;20040;-59
2023/05/05 06:40:14;;;;;;;11.90;4.53;;;;;;;;;;5046673;28;20029;-57
2023/05/05 06:42:40;;;;;;;13.82;4.82;;;;;;;;;;4995548;28;20041;-58
2023/05/05 06:45:05;;;;;;;7.70;4.15;;;;;;;;;;5045448;28;20115;-60
2023/05/05 06:47:30;;;;;;;7.75;4.07;;;;;;;;;;5047317;28;20474;-59
2023/05/05 06:49:56;;;;;;;11.33;4.73;;;;;;;;;;5012862;28;20067;-59
2023/05/05 06:52:21;;;;;;;8.35;3.80;;;;;;;;;;5046887;28;20017;-60
2023/05/05 06:54:46;;;;;;;10.20;4.27;;;;;;;;;;5031778;28;20033;-59
2023/05/05 06:57:12;;;;;;;18.73;4.53;;;;;;;;;;5032210;28;20274;-54
2023/05/05 06:59:37;;;;;;;9.13;3.47;;;;;;;;;;5033963;28;20259;-56
2023/05/05 07:02:02;;;;;;;13.03;4.03;;;;;;;;;;5025428;28;20807;-57
2023/05/05 07:04:28;;;;;;;11.73;4.15;;;;;;;;;;5043924;28;20320;-56
2023/05/05 07:06:54;;;;;;;9.52;3.35;;;;;;;;;;5039000;28;20541;-55
2023/05/05 07:09:19;;;;;;;11.00;3.88;;;;;;;;;;5033794;28;20056;-58
2023/05/05 07:11:45;;;;;;;6.50;3.65;;;;;;;;;;5033890;28;20060;-58
2023/05/05 07:14:10;;;;;;;15.20;4.05;;;;;;;;;;5033652;28;20030;-54
2023/05/05 07:16:36;;;;;;;8.07;3.70;;;;;;;;;;5033804;28;20068;-59
2023/05/05 07:19:04;;;;;;;9.63;3.97;;;;;;;;;;5029679;28;20249;-60
2023/05/05 07:21:29;;;;;;;8.53;3.23;;;;;;;;;;5037102;28;20045;-62
2023/05/05 07:23:55;;;;;;;16.08;4.47;;;;;;;;;;5016379;28;20052;-60
2023/05/05 07:26:20;;;;;;;11.80;4.10;;;;;;;;;;5037840;28;20104;-61
2023/05/05 07:28:45;;;;;;;9.98;4.30;;;;;;;;;;5029771;28;20744;-62
2023/05/05 07:31:10;;;;;;;8.13;4.28;;;;;;;;;;5026102;28;20485;-60
2023/05/05 07:33:36;;;;;;;10.20;4.43;;;;;;;;;;5046663;28;20465;-60
2023/05/05 07:36:01;;;;;;;12.80;4.63;;;;;;;;;;5034471;28;20262;-58
2023/05/05 07:38:27;;;;;;;13.23;5.03;;;;;;;;;;5033599;28;20037;-52
2023/05/05 07:40:52;;;;;;;13.10;4.05;;;;;;;;;;5028195;28;20040;-56
2023/05/05 07:43:18;;;;;;;13.68;5.00;;;;;;;;;;5032362;28;20068;-58
2023/05/05 07:45:43;;;;;;;50.03;34.28;;;;;;;;;;5027771;28;20061;-56
2023/05/05 07:48:08;;;;;;;9.63;4.90;;;;;;;;;;5031140;28;20120;-57
2023/05/05 07:50:35;;;;;;;31.17;7.00;;;;;;;;;;5038785;28;20328;-56
2023/05/05 07:53:00;;;;;;;16.88;4.60;;;;;;;;;;4979923;28;20522;-55
2023/05/05 07:55:25;;;;;;;14.73;5.47;;;;;;;;;;5031082;28;20112;-53
2023/05/05 07:57:50;;;;;;;19.57;4.83;;;;;;;;;;5036576;28;20278;-56
2023/05/05 08:00:18;;;;;;;15.20;5.10;;;;;;;;;;5028893;28;20030;-56
2023/05/05 08:02:43;;;;;;;16.42;5.40;;;;;;;;;;5038271;28;20309;-55
2023/05/05 08:05:08;;;;;;;13.75;4.85;;;;;;;;;;5035002;28;20473;-59
2023/05/05 08:07:35;;;;;;;26.33;6.93;;;;;;;;;;5034466;28;20044;-60
2023/05/05 08:10:00;;;;;;;24.20;5.60;;;;;;;;;;5001300;28;20471;-62
2023/05/05 08:12:25;;;;;;;13.70;5.37;;;;;;;;;;5036775;28;20040;-54
2023/05/05 08:14:51;;;;;;;12.90;4.93;;;;;;;;;;5034506;28;20316;-56
2023/05/05 08:17:16;;;;;;;8.67;4.83;;;;;;;;;;4999876;28;20028;-54
2023/05/05 08:19:41;;;;;;;11.30;4.57;;;;;;;;;;5032268;28;20371;-52
2023/05/05 08:22:06;;;;;;;9.90;4.77;;;;;;;;;;5026843;28;20266;-56
2023/05/05 08:24:32;;;;;;;9.40;4.80;;;;;;;;;;5026588;28;20047;-55
2023/05/05 08:26:57;;;;;;;10.20;5.57;;;;;;;;;;5029082;28;20521;-59
2023/05/05 08:29:22;;;;;;;12.07;5.57;;;;;;;;;;5030543;28;20259;-59
2023/05/05 08:31:47;;;;;;;14.07;4.63;;;;;;;;;;5025623;28;20068;-57
2023/05/05 08:34:13;;;;;;;13.43;4.70;;;;;;;;;;5038737;28;20536;-62
2023/05/05 08:36:38;;;;;;;12.43;5.27;;;;;;;;;;4994908;28;20314;-55
2023/05/05 08:39:03;;;;;;;14.47;5.30;;;;;;;;;;5024580;28;20049;-56
2023/05/05 08:41:28;;;;;;;12.80;4.82;;;;;;;;;;5041420;28;20498;-53
2023/05/05 08:43:54;;;;;;;17.85;5.10;;;;;;;;;;5040137;28;20474;-51
2023/05/05 08:46:19;;;;;;;13.37;5.33;;;;;;;;;;5040345;28;20541;-55
2023/05/05 08:48:44;;;;;;;7.65;4.90;;;;;;;;;;5032749;28;20345;-52
2023/05/05 08:51:14;;;;;;;10.90;5.20;;;;;;;;;;5026521;28;20113;-54
2023/05/05 08:53:47;;;;;;;11.05;5.45;;;;;;;;;;4997844;28;20504;-57
2023/05/05 08:56:14;;;;;;;12.55;5.13;;;;;;;;;;5027859;28;20307;-55
2023/05/05 08:58:40;;;;;;;16.52;6.40;;;;;;;;;;5035297;28;20067;-57
2023/05/05 09:01:06;;;;;;;25.85;15.55;;;;;;;;;;5025800;28;20083;-54
2023/05/05 09:03:32;;;;;;;86.82;63.88;;;;;;;;;;5032936;28;20037;-53
2023/05/05 09:05:57;;;;;;;15.60;7.07;;;;;;;;;;5028873;28;20067;-58
2023/05/05 09:08:23;;;;;;;8.35;4.15;;;;;;;;;;5033773;28;20433;-51
2023/05/05 09:10:49;;;;;;;7.10;4.82;;;;;;;;;;5027831;28;20052;-56
2023/05/05 09:13:15;;;;;;;17.55;8.25;;;;;;;;;;5009682;28;20033;-52
2023/05/05 09:15:41;;;;;;;8.40;5.05;;;;;;;;;;5044368;28;20070;-57
2023/05/05 09:18:11;;;;;;;13.50;7.07;;;;;;;;;;5044663;28;20090;-58
2023/05/05 09:20:36;;;;;;;13.32;6.13;;;;;;;;;;5035672;28;20387;-50
2023/05/05 09:23:09;;;;;;;4.32;3.50;;;;;;;;;;5039210;28;20083;-55
2023/05/05 09:25:35;;;;;;;26.38;9.60;;;;;;;;;;5030243;28;20120;-55
2023/05/05 09:28:06;;;;;;;10.80;5.10;;;;;;;;;;5036623;28;20111;-54
2023/05/05 09:30:33;;;;;;;9.80;5.03;;;;;;;;;;5038010;28;20378;-55
2023/05/05 09:33:01;;;;;;;10.82;5.28;;;;;;;;;;5038190;28;20519;-59
2023/05/05 09:35:26;;;;;;;10.68;5.38;;;;;;;;;;5036841;28;20028;-58
2023/05/05 09:37:51;;;;;;;8.63;4.68;;;;;;;;;;5051386;28;20028;-59
2023/05/05 09:40:17;;;;;;;8.20;4.97;;;;;;;;;;5033791;28;20068;-59
2023/05/05 09:42:43;;;;;;;9.98;4.97;;;;;;;;;;5027010;28;20632;-59
2023/05/05 09:45:17;;;;;;;4.80;4.30;;;;;;;;;;5042069;28;20561;-60
2023/05/05 09:47:44;;;;;;;9.32;5.13;;;;;;;;;;5038557;28;20068;-55
2023/05/05 09:50:13;;;;;;;7.70;3.45;;;;;;;;;;5036657;28;20026;-58
2023/05/05 09:52:38;;;;;;;9.73;4.72;;;;;;;;;;5039860;28;20632;-61
2023/05/05 09:55:03;;;;;;;6.72;4.50;;;;;;;;;;5036766;28;20310;-58
2023/05/05 09:57:30;;;;;;;6.00;3.88;;;;;;;;;;5044740;28;20490;-58
2023/05/05 09:59:56;;;;;;;8.18;3.83;;;;;;;;;;5045317;28;20120;-60
2023/05/05 10:02:28;;;;;;;7.50;3.55;;;;;;;;;;5046064;28;20100;-59
2023/05/05 10:05:03;;;;;;;4.93;3.85;;;;;;;;;;5039000;28;20029;-60
2023/05/05 10:07:28;;;;;;;7.68;4.80;;;;;;;;;;5039477;28;20422;-56
2023/05/05 10:09:54;;;;;;;5.47;3.80;;;;;;;;;;5042419;28;20028;-59
2023/05/05 10:12:19;;;;;;;9.87;3.70;;;;;;;;;;5043920;28;20378;-56
2023/05/05 10:14:44;;;;;;;10.15;3.65;;;;;;;;;;5030585;28;20238;-61
2023/05/05 10:17:10;;;;;;;6.03;4.07;;;;;;;;;;5027769;28;20119;-59
2023/05/05 10:19:36;;;;;;;4.20;3.33;;;;;;;;;;5024966;28;20037;-60
2023/05/05 10:22:02;;;;;;;7.68;3.78;;;;;;;;;;5031682;28;20032;-62
2023/05/05 10:24:31;;;;;;;14.27;3.22;;;;;;;;;;5029508;28;20032;-60
2023/05/05 10:26:57;;;;;;;8.50;4.00;;;;;;;;;;5037107;28;20040;-62
2023/05/05 10:29:44;;;;;;;7.50;4.70;;;;;;;;;;5006734;28;20035;-60
2023/05/05 10:32:27;;;;;;;6.28;4.45;;;;;;;;;;5038255;28;20025;-62
2023/05/05 10:34:56;;;;;;;15.25;3.72;;;;;;;;;;5027813;28;20052;-60
2023/05/05 10:37:21;;;;;;;;;;;;;;;;;;5043056;28;20120;-58
2023/05/05 10:39:48;;;;;;;7.93;4.83;;;;;;;;;;5028417;28;20039;-58
2023/05/05 10:42:14;;;;;;;8.40;4.88;;;;;;;;;;5035001;28;20370;-58
2023/05/05 10:44:40;;;;;;;7.68;4.10;;;;;;;;;;5032569;28;20647;-59
2023/05/05 10:47:05;;;;;;;5.38;3.65;;;;;;;;;;5027968;28;20048;-58
2023/05/05 10:49:50;;;;;;;7.47;4.07;;;;;;;;;;5043346;28;20013;-58
2023/05/05 10:52:28;;;;;;;5.88;2.90;;;;;;;;;;5029634;28;20660;-59
2023/05/05 10:55:12;;;;;;;7.40;3.20;;;;;;;;;;4994743;28;20043;-58
2023/05/05 10:57:41;;;;;;;4.57;3.30;;;;;;;;;;5026794;28;20037;-58
2023/05/05 11:00:07;;;;;;;9.48;3.85;;;;;;;;;;5029624;28;20065;-57
2023/05/05 11:02:32;;;;;;;4.72;3.47;;;;;;;;;;5035614;28;20021;-58
2023/05/05 11:05:13;;;;;;;6.38;4.18;;;;;;;;;;5027416;28;20389;-57
2023/05/05 11:07:39;;;;;;;6.70;3.67;;;;;;;;;;5036887;28;20158;-57
2023/05/05 11:10:08;;;;;;;6.57;4.43;;;;;;;;;;5034207;28;20033;-58
2023/05/05 11:12:52;;;;;;;4.85;3.97;;;;;;;;;;5057398;28;20392;-59
2023/05/05 11:15:26;;;;;;;5.03;3.20;;;;;;;;;;5033456;28;20430;-61
2023/05/05 11:17:52;;;;;;;5.43;4.05;;;;;;;;;;5041968;28;20086;-58
2023/05/05 11:20:38;;;;;;;4.72;3.15;;;;;;;;;;5034230;28;20029;-59
2023/05/05 11:23:03;;;;;;;3.63;3.28;;;;;;;;;;5033424;28;20021;-59
2023/05/05 11:25:39;;;;;;;6.13;4.40;;;;;;;;;;5033846;28;20489;-58
2023/05/05 11:28:17;;;;;;;5.00;3.47;;;;;;;;;;5037888;28;20056;-58
2023/05/05 11:30:57;;;;;;;3.85;3.33;;;;;;;;;;5042784;28;20025;-57
2023/05/05 11:33:27;;;;;;;2.80;2.60;;;;;;;;;;5023914;28;20019;-58
2023/05/05 11:36:01;;;;;;;5.13;3.22;;;;;;;;;;5010193;28;20029;-58
2023/05/05 11:38:36;;;;;;;5.47;3.63;;;;;;;;;;5043394;28;20086;-58
2023/05/05 11:41:20;;;;;;;5.93;3.60;;;;;;;;;;5025312;28;20238;-58
2023/05/05 11:43:45;;;;;;;7.20;2.80;;;;;;;;;;5034251;28;20086;-60
2023/05/05 11:46:14;;;;;;;4.05;2.67;;;;;;;;;;5034792;28;20406;-58
2023/05/05 11:48:47;;;;;;;5.78;3.10;;;;;;;;;;5034431;28;20355;-62
2023/05/05 11:51:12;;;;;;;6.25;2.92;;;;;;;;;;5029534;28;20112;-61
2023/05/05 11:53:44;;;;;;;5.68;2.90;;;;;;;;;;5029909;28;20116;-60
2023/05/05 11:56:11;;;;;;;5.57;2.55;;;;;;;;;;5025498;28;20154;-59
2023/05/05 11:58:37;;;;;;;4.35;2.90;;;;;;;;;;5026005;28;20615;-61
2023/05/05 12:01:06;;;;;;;3.80;2.67;;;;;;;;;;5029056;28;20407;-60
2023/05/05 12:03:31;;;;;;;;;;;;;;;;;;5040902;28;20078;-61
2023/05/05 12:05:56;;;;;;;3.40;3.10;;;;;;;;;;5038874;28;19909;-58
2023/05/05 12:08:21;;;;;;;3.70;2.40;;;;;;;;;;5046177;28;20376;-59
2023/05/05 12:10:47;;;;;;;3.50;2.60;;;;;;;;;;5041443;28;20341;-62
2023/05/05 12:13:18;;;;;;;3.80;2.90;;;;;;;;;;5045661;28;20256;-62
2023/05/05 12:15:44;;;;;;;4.85;3.03;;;;;;;;;;5045757;28;20053;-59
2023/05/05 12:18:19;;;;;;;6.93;2.72;;;;;;;;;;5044985;28;20091;-60
2023/05/05 12:20:44;;;;;;;7.47;2.72;;;;;;;;;;5039727;28;20029;-61
2023/05/05 12:23:11;;;;;;;5.43;3.05;;;;;;;;;;5043188;28;20032;-62
2023/05/05 12:25:39;;;;;;;5.22;3.25;;;;;;;;;;5045596;28;20017;-62
2023/05/05 12:28:08;;;;;;;5.75;3.17;;;;;;;;;;5045352;28;20024;-62
2023/05/05 12:30:33;;;;;;;4.28;3.20;;;;;;;;;;5045249;28;20122;-62
2023/05/05 12:33:02;;;;;;;5.95;3.30;;;;;;;;;;5045280;28;20499;-62
2023/05/05 12:35:28;;;;;;;6.10;2.97;;;;;;;;;;5045594;28;20060;-63
2023/05/05 12:37:54;;;;;;;5.20;3.20;;;;;;;;;;5043238;28;20489;-63
2023/05/05 12:40:37;;;;;;;3.50;3.17;;;;;;;;;;5044960;28;20056;-60
2023/05/05 12:43:03;;;;;;;4.15;3.17;;;;;;;;;;5045352;28;20052;-59
2023/05/05 12:45:28;;;;;;;8.97;3.50;;;;;;;;;;5006927;28;20084;-60
2023/05/05 12:47:53;;;;;;;4.45;3.50;;;;;;;;;;5025331;28;20658;-58
2023/05/05 12:50:28;;;;;;;6.03;2.90;;;;;;;;;;5015989;28;20059;-59
2023/05/05 12:52:54;;;;;;;4.47;3.30;;;;;;;;;;5006018;28;20470;-58
2023/05/05 12:55:19;;;;;;;4.20;2.87;;;;;;;;;;5003606;28;20065;-59
2023/05/05 12:57:59;;;;;;;4.53;2.80;;;;;;;;;;5008261;28;20270;-59
2023/05/05 13:00:24;;;;;;;7.55;3.10;;;;;;;;;;5028495;28;20258;-54
2023/05/05 13:02:50;;;;;;;15.40;3.25;;;;;;;;;;5029376;28;20036;-59
2023/05/05 13:05:27;;;;;;;4.60;2.95;;;;;;;;;;5029191;28;20451;-56
2023/05/05 13:07:52;;;;;;;2.97;2.42;;;;;;;;;;5029345;28;20030;-58
2023/05/05 13:10:18;;;;;;;4.37;2.60;;;;;;;;;;5029151;28;20593;-59
2023/05/05 13:12:43;;;;;;;3.53;2.50;;;;;;;;;;5029295;28;20033;-58
2023/05/05 13:15:08;;;;;;;8.33;3.07;;;;;;;;;;5028472;28;20357;-56
2023/05/05 13:17:34;;;;;;;6.88;2.75;;;;;;;;;;5028245;28;20274;-60
2023/05/05 13:19:59;;;;;;;3.40;2.72;;;;;;;;;;4992368;28;20483;-57
2023/05/05 13:22:25;;;;;;;4.67;2.77;;;;;;;;;;5016517;28;20021;-58
2023/05/05 13:24:50;;;;;;;3.63;2.97;;;;;;;;;;5017421;28;20013;-58
2023/05/05 13:27:15;;;;;;;3.27;2.67;;;;;;;;;;5026091;28;20035;-59
2023/05/05 13:29:41;;;;;;;4.07;2.80;;;;;;;;;;5028043;28;20394;-59
2023/05/05 13:32:06;;;;;;;4.75;2.40;;;;;;;;;;5028709;28;20235;-55
2023/05/05 13:34:32;;;;;;;4.18;2.70;;;;;;;;;;5028754;28;20021;-59
2023/05/05 13:36:57;;;;;;;4.22;2.60;;;;;;;;;;5028396;28;20073;-57
2023/05/05 13:39:22;;;;;;;2.47;2.15;;;;;;;;;;5028750;28;20030;-57
2023/05/05 13:41:48;;;;;;;3.05;2.50;;;;;;;;;;5028785;28;20368;-59
2023/05/05 13:44:13;;;;;;;3.30;2.30;;;;;;;;;;5008930;28;20038;-58
2023/05/05 13:46:39;;;;;;;3.70;2.55;;;;;;;;;;5045891;28;20290;-58
2023/05/05 13:49:04;;;;;;;3.17;2.40;;;;;;;;;;5048128;28;20024;-57
2023/05/05 13:51:29;;;;;;;3.27;2.33;;;;;;;;;;5048276;28;20082;-59
2023/05/05 13:53:55;;;;;;;5.00;2.28;;;;;;;;;;5048240;28;20274;-59
2023/05/05 13:56:24;;;;;;;3.20;2.33;;;;;;;;;;5047756;28;20518;-56
2023/05/05 13:58:49;;;;;;;4.72;2.72;;;;;;;;;;5047518;28;20261;-59
2023/05/05 14:01:15;;;;;;;2.70;2.43;;;;;;;;;;5047484;28;20017;-60
2023/05/05 14:03:40;;;;;;;5.20;3.57;;;;;;;;;;5047405;28;20023;-58
2023/05/05 14:06:06;;;;;;;7.80;2.97;;;;;;;;;;5047846;28;20245;-59
2023/05/05 14:08:31;;;;;;;4.13;2.22;;;;;;;;;;5047641;28;20808;-59
2023/05/05 14:10:56;;;;;;;2.60;2.20;;;;;;;;;;5047357;28;20454;-59
2023/05/05 14:13:22;;;;;;;6.73;2.60;;;;;;;;;;5047601;28;20029;-59
2023/05/05 14:15:49;;;;;;;2.50;2.30;;;;;;;;;;5047655;28;20272;-58
2023/05/05 14:18:14;;;;;;;3.63;2.28;;;;;;;;;;4989140;28;20279;-58
2023/05/05 14:20:40;;;;;;;4.00;2.60;;;;;;;;;;5005059;28;20053;-56
2023/05/05 14:23:05;;;;;;;8.07;2.53;;;;;;;;;;5004957;28;20275;-59
2023/05/05 14:25:31;;;;;;;5.63;2.37;;;;;;;;;;5004945;28;20022;-58
2023/05/05 14:27:56;;;;;;;3.92;2.55;;;;;;;;;;5004838;28;20255;-55
2023/05/05 14:30:21;;;;;;;8.27;2.80;;;;;;;;;;5004886;28;20038;-60
2023/05/05 14:32:47;;;;;;;5.07;2.90;;;;;;;;;;5004457;28;20104;-59
2023/05/05 14:35:12;;;;;;;4.50;2.95;;;;;;;;;;5004366;28;20247;-59
2023/05/05 14:37:37;;;;;;;6.97;2.60;;;;;;;;;;5004582;28;20384;-61